sensor_id;sensor_type;location;lat;lon;timestamp;temperature;humidity
44823;DHT22;51097;51.984;5.650;2023-02-20T00:00:07;8.80;99.90
44823;DHT22;51097;51.984;5.650;2023-02-20T00:02:36;8.90;99.90
44823;DHT22;51097;51.984;5.650;2023-02-20T00:05:01;9.00;99.90
44823;DHT22;51097;51.984;5.650;2023-02-20T00:07:27;9.00;99.90
44823;DHT22;51097;51.984;5.650;2023-02-20T00:09:52;9.10;99.90
44823;DHT22;51097;51.984;5.650;2023-02-20T00:12:18;9.10;99.90
44823;DHT22;51097;51.984;5.650;2023-02-20T00:14:43;9.10;99.90
44823;DHT22;51097;51.984;5.650;2023-02-20T00:17:09;9.10;99.90
44823;DHT22;51097;51.984;5.650;2023-02-20T00:19:34;9.00;99.90
44823;DHT22;51097;51.984;5.650;2023-02-20T00:22:00;9.30;99.90
44823;DHT22;51097;51.984;5.650;2023-02-20T00:24:26;9.20;99.90
44823;DHT22;51097;51.984;5.650;2023-02-20T00:26:52;9.00;99.90
44823;DHT22;51097;51.984;5.650;2023-02-20T00:29:20;9.00;99.90
44823;DHT22;51097;51.984;5.650;2023-02-20T00:31:51;9.00;99.90
44823;DHT22;51097;51.984;5.650;2023-02-20T00:34:18;9.00;99.90
44823;DHT22;51097;51.984;5.650;2023-02-20T00:36:44;9.10;99.90
44823;DHT22;51097;51.984;5.650;2023-02-20T00:39:09;9.20;99.90
44823;DHT22;51097;51.984;5.650;2023-02-20T00:41:35;9.20;99.90
44823;DHT22;51097;51.984;5.650;2023-02-20T00:44:00;9.30;99.90
44823;DHT22;51097;51.984;5.650;2023-02-20T00:46:26;9.30;99.90
44823;DHT22;51097;51.984;5.650;2023-02-20T00:48:51;9.30;99.90
44823;DHT22;51097;51.984;5.650;2023-02-20T00:51:17;9.20;99.90
44823;DHT22;51097;51.984;5.650;2023-02-20T00:53:42;9.20;99.90
44823;DHT22;51097;51.984;5.650;2023-02-20T00:56:08;9.30;99.90
44823;DHT22;51097;51.984;5.650;2023-02-20T00:58:34;9.20;99.90
44823;DHT22;51097;51.984;5.650;2023-02-20T01:00:59;9.30;99.90
44823;DHT22;51097;51.984;5.650;2023-02-20T01:03:25;9.30;99.90
44823;DHT22;51097;51.984;5.650;2023-02-20T01:05:50;9.30;99.90
44823;DHT22;51097;51.984;5.650;2023-02-20T01:08:16;9.20;99.90
44823;DHT22;51097;51.984;5.650;2023-02-20T01:10:41;9.30;99.90
44823;DHT22;51097;51.984;5.650;2023-02-20T01:13:07;9.30;99.90
44823;DHT22;51097;51.984;5.650;2023-02-20T01:15:33;9.10;99.90
44823;DHT22;51097;51.984;5.650;2023-02-20T01:17:58;9.20;99.90
44823;DHT22;51097;51.984;5.650;2023-02-20T01:20:24;9.20;99.90
44823;DHT22;51097;51.984;5.650;2023-02-20T01:22:49;9.20;99.90
44823;DHT22;51097;51.984;5.650;2023-02-20T01:25:15;9.20;99.90
44823;DHT22;51097;51.984;5.650;2023-02-20T01:27:41;9.20;99.90
44823;DHT22;51097;51.984;5.650;2023-02-20T01:30:07;9.20;99.90
44823;DHT22;51097;51.984;5.650;2023-02-20T01:32:33;9.30;99.90
44823;DHT22;51097;51.984;5.650;2023-02-20T01:34:59;9.20;99.90
44823;DHT22;51097;51.984;5.650;2023-02-20T01:37:24;9.20;99.90
44823;DHT22;51097;51.984;5.650;2023-02-20T01:39:50;9.10;99.90
44823;DHT22;51097;51.984;5.650;2023-02-20T01:42:20;9.20;99.90
44823;DHT22;51097;51.984;5.650;2023-02-20T01:44:47;9.20;99.90
44823;DHT22;51097;51.984;5.650;2023-02-20T01:47:21;9.30;99.90
44823;DHT22;51097;51.984;5.650;2023-02-20T01:49:48;9.30;99.90
44823;DHT22;51097;51.984;5.650;2023-02-20T01:52:27;9.20;99.90
44823;DHT22;51097;51.984;5.650;2023-02-20T01:55:10;9.10;99.90
44823;DHT22;51097;51.984;5.650;2023-02-20T01:57:38;9.20;99.90
44823;DHT22;51097;51.984;5.650;2023-02-20T02:00:14;9.20;99.90
44823;DHT22;51097;51.984;5.650;2023-02-20T02:02:43;9.30;99.90
44823;DHT22;51097;51.984;5.650;2023-02-20T02:05:10;9.30;99.90
44823;DHT22;51097;51.984;5.650;2023-02-20T02:07:37;9.20;99.90
44823;DHT22;51097;51.984;5.650;2023-02-20T02:10:08;9.20;99.90
44823;DHT22;51097;51.984;5.650;2023-02-20T02:12:35;9.20;99.90
44823;DHT22;51097;51.984;5.650;2023-02-20T02:15:01;9.10;99.90
44823;DHT22;51097;51.984;5.650;2023-02-20T02:38:03;9.10;99.90
44823;DHT22;51097;51.984;5.650;2023-02-20T02:46:26;9.30;99.90
44823;DHT22;51097;51.984;5.650;2023-02-20T02:49:05;9.40;99.90
44823;DHT22;51097;51.984;5.650;2023-02-20T02:51:35;9.40;99.90
44823;DHT22;51097;51.984;5.650;2023-02-20T02:54:09;9.40;99.90
44823;DHT22;51097;51.984;5.650;2023-02-20T02:56:38;9.50;99.90
44823;DHT22;51097;51.984;5.650;2023-02-20T02:59:04;9.40;99.90
44823;DHT22;51097;51.984;5.650;2023-02-20T03:01:33;9.60;99.90
44823;DHT22;51097;51.984;5.650;2023-02-20T03:04:04;9.50;99.90
44823;DHT22;51097;51.984;5.650;2023-02-20T03:06:34;9.60;99.90
44823;DHT22;51097;51.984;5.650;2023-02-20T03:11:33;9.70;99.90
44823;DHT22;51097;51.984;5.650;2023-02-20T03:17:07;9.60;99.90
44823;DHT22;51097;51.984;5.650;2023-02-20T03:19:36;9.70;99.90
44823;DHT22;51097;51.984;5.650;2023-02-20T03:22:09;9.70;99.90
44823;DHT22;51097;51.984;5.650;2023-02-20T03:24:38;9.70;99.90
44823;DHT22;51097;51.984;5.650;2023-02-20T03:27:22;9.70;99.90
44823;DHT22;51097;51.984;5.650;2023-02-20T03:29:51;9.80;99.90
44823;DHT22;51097;51.984;5.650;2023-02-20T03:32:21;9.90;99.90
44823;DHT22;51097;51.984;5.650;2023-02-20T03:35:07;10.00;99.90
44823;DHT22;51097;51.984;5.650;2023-02-20T03:37:52;10.00;99.90
44823;DHT22;51097;51.984;5.650;2023-02-20T03:40:39;9.80;99.90
44823;DHT22;51097;51.984;5.650;2023-02-20T03:43:24;9.80;99.90
44823;DHT22;51097;51.984;5.650;2023-02-20T03:46:02;9.80;99.90
44823;DHT22;51097;51.984;5.650;2023-02-20T03:48:49;9.90;99.90
44823;DHT22;51097;51.984;5.650;2023-02-20T03:51:16;9.90;99.90
44823;DHT22;51097;51.984;5.650;2023-02-20T03:53:43;10.00;99.90
44823;DHT22;51097;51.984;5.650;2023-02-20T03:56:15;10.00;99.90
44823;DHT22;51097;51.984;5.650;2023-02-20T03:58:46;9.90;99.90
44823;DHT22;51097;51.984;5.650;2023-02-20T04:01:15;9.90;99.90
44823;DHT22;51097;51.984;5.650;2023-02-20T04:03:45;9.90;99.90
44823;DHT22;51097;51.984;5.650;2023-02-20T04:06:13;10.10;99.90
44823;DHT22;51097;51.984;5.650;2023-02-20T04:09:00;10.10;99.90
44823;DHT22;51097;51.984;5.650;2023-02-20T04:11:36;10.20;99.90
44823;DHT22;51097;51.984;5.650;2023-02-20T04:14:04;10.30;99.90
44823;DHT22;51097;51.984;5.650;2023-02-20T04:16:34;10.30;99.90
44823;DHT22;51097;51.984;5.650;2023-02-20T04:19:00;10.20;99.90
44823;DHT22;51097;51.984;5.650;2023-02-20T04:21:53;10.30;99.90
44823;DHT22;51097;51.984;5.650;2023-02-20T04:24:39;10.20;99.90
44823;DHT22;51097;51.984;5.650;2023-02-20T04:27:07;10.20;99.90
44823;DHT22;51097;51.984;5.650;2023-02-20T04:29:32;10.20;99.90
44823;DHT22;51097;51.984;5.650;2023-02-20T04:31:58;10.20;99.90
44823;DHT22;51097;51.984;5.650;2023-02-20T04:34:24;10.20;99.90
44823;DHT22;51097;51.984;5.650;2023-02-20T04:36:54;10.30;99.90
44823;DHT22;51097;51.984;5.650;2023-02-20T04:39:25;10.30;99.90
44823;DHT22;51097;51.984;5.650;2023-02-20T04:41:51;10.30;99.90
44823;DHT22;51097;51.984;5.650;2023-02-20T04:44:16;10.20;99.90
44823;DHT22;51097;51.984;5.650;2023-02-20T04:47:11;10.30;99.90
44823;DHT22;51097;51.984;5.650;2023-02-20T04:49:37;10.40;99.90
44823;DHT22;51097;51.984;5.650;2023-02-20T04:52:03;10.20;99.90
44823;DHT22;51097;51.984;5.650;2023-02-20T04:54:29;10.30;99.90
44823;DHT22;51097;51.984;5.650;2023-02-20T04:56:54;10.20;99.90
44823;DHT22;51097;51.984;5.650;2023-02-20T04:59:20;10.30;99.90
44823;DHT22;51097;51.984;5.650;2023-02-20T05:01:45;10.10;99.90
44823;DHT22;51097;51.984;5.650;2023-02-20T05:04:14;10.20;99.90
44823;DHT22;51097;51.984;5.650;2023-02-20T05:06:49;10.20;99.90
44823;DHT22;51097;51.984;5.650;2023-02-20T05:09:15;10.20;99.90
44823;DHT22;51097;51.984;5.650;2023-02-20T05:11:41;10.30;99.90
44823;DHT22;51097;51.984;5.650;2023-02-20T05:14:07;10.20;99.90
44823;DHT22;51097;51.984;5.650;2023-02-20T05:16:35;10.10;99.90
44823;DHT22;51097;51.984;5.650;2023-02-20T05:19:01;10.10;99.90
44823;DHT22;51097;51.984;5.650;2023-02-20T05:21:27;10.10;99.90
44823;DHT22;51097;51.984;5.650;2023-02-20T05:24:11;10.10;99.90
44823;DHT22;51097;51.984;5.650;2023-02-20T05:26:37;10.20;99.90
44823;DHT22;51097;51.984;5.650;2023-02-20T05:29:03;10.30;99.90
44823;DHT22;51097;51.984;5.650;2023-02-20T05:31:29;10.20;99.90
44823;DHT22;51097;51.984;5.650;2023-02-20T05:33:55;10.30;99.90
44823;DHT22;51097;51.984;5.650;2023-02-20T05:36:20;10.40;99.90
44823;DHT22;51097;51.984;5.650;2023-02-20T05:38:46;10.50;99.90
44823;DHT22;51097;51.984;5.650;2023-02-20T05:41:17;10.50;99.90
44823;DHT22;51097;51.984;5.650;2023-02-20T05:43:43;10.50;99.90
44823;DHT22;51097;51.984;5.650;2023-02-20T05:46:09;10.50;99.90
44823;DHT22;51097;51.984;5.650;2023-02-20T05:48:34;10.40;99.90
44823;DHT22;51097;51.984;5.650;2023-02-20T05:51:00;10.40;99.90
44823;DHT22;51097;51.984;5.650;2023-02-20T05:53:29;10.40;99.90
44823;DHT22;51097;51.984;5.650;2023-02-20T05:55:56;10.30;99.90
44823;DHT22;51097;51.984;5.650;2023-02-20T05:58:22;10.40;99.90
44823;DHT22;51097;51.984;5.650;2023-02-20T06:00:47;10.60;99.90
44823;DHT22;51097;51.984;5.650;2023-02-20T06:03:14;10.50;99.90
44823;DHT22;51097;51.984;5.650;2023-02-20T06:05:40;10.60;99.90
44823;DHT22;51097;51.984;5.650;2023-02-20T06:08:05;10.50;99.90
44823;DHT22;51097;51.984;5.650;2023-02-20T06:10:31;10.40;99.90
44823;DHT22;51097;51.984;5.650;2023-02-20T06:13:00;10.50;99.90
44823;DHT22;51097;51.984;5.650;2023-02-20T06:15:26;10.50;99.90
44823;DHT22;51097;51.984;5.650;2023-02-20T06:18:07;10.50;99.90
44823;DHT22;51097;51.984;5.650;2023-02-20T06:20:56;10.70;99.90
44823;DHT22;51097;51.984;5.650;2023-02-20T06:23:41;10.60;99.90
44823;DHT22;51097;51.984;5.650;2023-02-20T06:26:12;10.60;99.90
44823;DHT22;51097;51.984;5.650;2023-02-20T06:28:40;10.50;99.90
44823;DHT22;51097;51.984;5.650;2023-02-20T06:31:28;10.50;99.90
44823;DHT22;51097;51.984;5.650;2023-02-20T06:33:56;10.60;99.90
44823;DHT22;51097;51.984;5.650;2023-02-20T06:36:45;10.60;99.90
44823;DHT22;51097;51.984;5.650;2023-02-20T06:39:16;10.60;99.90
44823;DHT22;51097;51.984;5.650;2023-02-20T06:42:02;10.50;99.90
44823;DHT22;51097;51.984;5.650;2023-02-20T06:44:30;10.60;99.90
44823;DHT22;51097;51.984;5.650;2023-02-20T06:46:58;10.70;99.90
44823;DHT22;51097;51.984;5.650;2023-02-20T06:49:24;10.70;99.90
44823;DHT22;51097;51.984;5.650;2023-02-20T06:51:59;10.80;99.90
44823;DHT22;51097;51.984;5.650;2023-02-20T06:54:25;11.00;99.90
44823;DHT22;51097;51.984;5.650;2023-02-20T06:57:11;10.80;99.90
44823;DHT22;51097;51.984;5.650;2023-02-20T06:59:36;10.70;99.90
44823;DHT22;51097;51.984;5.650;2023-02-20T07:02:09;10.70;99.90
44823;DHT22;51097;51.984;5.650;2023-02-20T07:04:35;10.80;99.90
44823;DHT22;51097;51.984;5.650;2023-02-20T07:07:01;10.60;99.90
44823;DHT22;51097;51.984;5.650;2023-02-20T07:09:27;10.70;99.90
44823;DHT22;51097;51.984;5.650;2023-02-20T07:11:53;10.70;99.90
44823;DHT22;51097;51.984;5.650;2023-02-20T07:14:19;10.70;99.90
44823;DHT22;51097;51.984;5.650;2023-02-20T07:16:45;10.80;99.90
44823;DHT22;51097;51.984;5.650;2023-02-20T07:19:10;10.80;99.90
44823;DHT22;51097;51.984;5.650;2023-02-20T07:21:36;10.90;99.90
44823;DHT22;51097;51.984;5.650;2023-02-20T07:24:02;10.70;99.90
44823;DHT22;51097;51.984;5.650;2023-02-20T07:26:29;10.90;99.90
44823;DHT22;51097;51.984;5.650;2023-02-20T07:28:55;11.00;99.90
44823;DHT22;51097;51.984;5.650;2023-02-20T07:31:28;11.00;99.90
44823;DHT22;51097;51.984;5.650;2023-02-20T07:33:53;10.90;99.90
44823;DHT22;51097;51.984;5.650;2023-02-20T07:36:19;11.00;99.90
44823;DHT22;51097;51.984;5.650;2023-02-20T07:38:56;10.90;99.90
44823;DHT22;51097;51.984;5.650;2023-02-20T07:41:23;10.90;99.90
44823;DHT22;51097;51.984;5.650;2023-02-20T07:43:49;11.00;99.90
44823;DHT22;51097;51.984;5.650;2023-02-20T07:46:15;10.90;99.90
44823;DHT22;51097;51.984;5.650;2023-02-20T07:48:41;11.00;99.90
44823;DHT22;51097;51.984;5.650;2023-02-20T07:51:06;10.90;99.90
44823;DHT22;51097;51.984;5.650;2023-02-20T07:53:32;11.00;99.90
44823;DHT22;51097;51.984;5.650;2023-02-20T07:55:58;11.00;99.90
44823;DHT22;51097;51.984;5.650;2023-02-20T07:58:23;10.90;99.90
44823;DHT22;51097;51.984;5.650;2023-02-20T08:00:49;11.00;99.90
44823;DHT22;51097;51.984;5.650;2023-02-20T08:03:19;11.10;99.90
44823;DHT22;51097;51.984;5.650;2023-02-20T08:05:44;11.00;99.90
44823;DHT22;51097;51.984;5.650;2023-02-20T08:08:10;10.90;99.90
44823;DHT22;51097;51.984;5.650;2023-02-20T08:10:36;10.90;99.90
44823;DHT22;51097;51.984;5.650;2023-02-20T08:13:02;11.00;99.90
44823;DHT22;51097;51.984;5.650;2023-02-20T08:15:28;11.10;99.90
44823;DHT22;51097;51.984;5.650;2023-02-20T08:17:53;11.20;99.90
44823;DHT22;51097;51.984;5.650;2023-02-20T08:20:20;11.30;99.90
44823;DHT22;51097;51.984;5.650;2023-02-20T08:22:47;11.20;99.90
44823;DHT22;51097;51.984;5.650;2023-02-20T08:25:14;11.20;99.90
44823;DHT22;51097;51.984;5.650;2023-02-20T08:27:44;11.30;99.90
44823;DHT22;51097;51.984;5.650;2023-02-20T08:30:13;11.10;99.90
44823;DHT22;51097;51.984;5.650;2023-02-20T08:32:39;11.30;99.90
44823;DHT22;51097;51.984;5.650;2023-02-20T08:35:05;11.30;99.90
44823;DHT22;51097;51.984;5.650;2023-02-20T08:37:31;11.30;99.90
44823;DHT22;51097;51.984;5.650;2023-02-20T08:39:56;11.20;99.90
44823;DHT22;51097;51.984;5.650;2023-02-20T08:42:22;11.10;99.90
44823;DHT22;51097;51.984;5.650;2023-02-20T08:44:47;11.10;99.90
44823;DHT22;51097;51.984;5.650;2023-02-20T08:47:13;11.10;99.90
44823;DHT22;51097;51.984;5.650;2023-02-20T08:49:38;11.20;99.90
44823;DHT22;51097;51.984;5.650;2023-02-20T08:52:05;11.20;99.90
44823;DHT22;51097;51.984;5.650;2023-02-20T08:54:31;11.20;99.90
44823;DHT22;51097;51.984;5.650;2023-02-20T08:56:56;11.30;99.90
44823;DHT22;51097;51.984;5.650;2023-02-20T08:59:22;11.40;99.90
44823;DHT22;51097;51.984;5.650;2023-02-20T09:01:47;11.60;99.90
44823;DHT22;51097;51.984;5.650;2023-02-20T09:04:13;11.50;99.90
44823;DHT22;51097;51.984;5.650;2023-02-20T09:06:40;11.60;99.90
44823;DHT22;51097;51.984;5.650;2023-02-20T09:09:05;11.70;99.90
44823;DHT22;51097;51.984;5.650;2023-02-20T09:11:31;11.50;99.90
44823;DHT22;51097;51.984;5.650;2023-02-20T09:13:56;11.50;99.90
44823;DHT22;51097;51.984;5.650;2023-02-20T09:16:23;11.50;99.90
44823;DHT22;51097;51.984;5.650;2023-02-20T09:18:49;11.60;99.90
44823;DHT22;51097;51.984;5.650;2023-02-20T09:21:17;11.60;99.90
44823;DHT22;51097;51.984;5.650;2023-02-20T09:23:43;11.60;99.90
44823;DHT22;51097;51.984;5.650;2023-02-20T09:26:09;11.60;99.90
44823;DHT22;51097;51.984;5.650;2023-02-20T09:28:34;11.60;99.90
44823;DHT22;51097;51.984;5.650;2023-02-20T09:31:00;11.60;99.90
44823;DHT22;51097;51.984;5.650;2023-02-20T09:33:27;11.60;99.90
44823;DHT22;51097;51.984;5.650;2023-02-20T09:35:53;11.40;99.90
44823;DHT22;51097;51.984;5.650;2023-02-20T09:38:23;11.40;99.90
44823;DHT22;51097;51.984;5.650;2023-02-20T09:40:53;11.50;99.90
44823;DHT22;51097;51.984;5.650;2023-02-20T09:46:20;11.40;99.90
44823;DHT22;51097;51.984;5.650;2023-02-20T09:51:22;11.30;99.90
44823;DHT22;51097;51.984;5.650;2023-02-20T09:54:05;11.40;99.90
44823;DHT22;51097;51.984;5.650;2023-02-20T09:56:56;11.60;99.90
44823;DHT22;51097;51.984;5.650;2023-02-20T09:59:42;11.60;99.90
44823;DHT22;51097;51.984;5.650;2023-02-20T10:02:26;11.60;99.90
44823;DHT22;51097;51.984;5.650;2023-02-20T10:04:55;11.60;99.90
44823;DHT22;51097;51.984;5.650;2023-02-20T10:07:32;11.40;99.90
44823;DHT22;51097;51.984;5.650;2023-02-20T10:09:59;11.30;99.90
44823;DHT22;51097;51.984;5.650;2023-02-20T10:15:26;11.50;99.90
44823;DHT22;51097;51.984;5.650;2023-02-20T10:20:36;11.40;99.90
44823;DHT22;51097;51.984;5.650;2023-02-20T10:23:28;11.50;99.90
44823;DHT22;51097;51.984;5.650;2023-02-20T10:26:01;11.50;99.90
44823;DHT22;51097;51.984;5.650;2023-02-20T10:28:28;11.40;99.90
44823;DHT22;51097;51.984;5.650;2023-02-20T10:30:56;11.50;99.90
44823;DHT22;51097;51.984;5.650;2023-02-20T10:38:51;11.70;99.90
44823;DHT22;51097;51.984;5.650;2023-02-20T10:42:22;11.80;99.90
44823;DHT22;51097;51.984;5.650;2023-02-20T10:44:52;11.80;99.90
44823;DHT22;51097;51.984;5.650;2023-02-20T10:52:15;11.70;99.90
44823;DHT22;51097;51.984;5.650;2023-02-20T10:54:57;11.60;99.90
44823;DHT22;51097;51.984;5.650;2023-02-20T10:57:32;11.80;99.90
44823;DHT22;51097;51.984;5.650;2023-02-20T11:00:14;11.70;99.90
44823;DHT22;51097;51.984;5.650;2023-02-20T11:02:44;11.80;99.90
44823;DHT22;51097;51.984;5.650;2023-02-20T11:05:18;11.70;99.90
44823;DHT22;51097;51.984;5.650;2023-02-20T11:07:45;11.70;99.90
44823;DHT22;51097;51.984;5.650;2023-02-20T11:10:11;11.70;99.90
44823;DHT22;51097;51.984;5.650;2023-02-20T11:12:45;11.60;99.90
44823;DHT22;51097;51.984;5.650;2023-02-20T11:15:24;11.70;99.90
44823;DHT22;51097;51.984;5.650;2023-02-20T11:17:55;11.90;99.90
44823;DHT22;51097;51.984;5.650;2023-02-20T11:22:58;11.90;99.90
44823;DHT22;51097;51.984;5.650;2023-02-20T11:25:31;12.00;99.90
44823;DHT22;51097;51.984;5.650;2023-02-20T11:30:35;12.10;99.90
44823;DHT22;51097;51.984;5.650;2023-02-20T11:33:13;12.00;99.90
44823;DHT22;51097;51.984;5.650;2023-02-20T11:35:49;11.90;99.90
44823;DHT22;51097;51.984;5.650;2023-02-20T11:43:18;11.60;99.90
44823;DHT22;51097;51.984;5.650;2023-02-20T11:45:45;11.70;99.90
44823;DHT22;51097;51.984;5.650;2023-02-20T11:48:16;11.60;99.90
44823;DHT22;51097;51.984;5.650;2023-02-20T11:50:52;11.60;99.90
44823;DHT22;51097;51.984;5.650;2023-02-20T11:53:24;11.50;99.90
44823;DHT22;51097;51.984;5.650;2023-02-20T11:58:34;11.70;99.90
44823;DHT22;51097;51.984;5.650;2023-02-20T12:01:00;11.60;99.90
44823;DHT22;51097;51.984;5.650;2023-02-20T12:03:31;11.60;99.90
44823;DHT22;51097;51.984;5.650;2023-02-20T12:06:00;11.70;99.90
44823;DHT22;51097;51.984;5.650;2023-02-20T12:11:21;11.90;99.90
44823;DHT22;51097;51.984;5.650;2023-02-20T12:13:48;12.10;99.90
44823;DHT22;51097;51.984;5.650;2023-02-20T12:16:56;12.10;99.90
44823;DHT22;51097;51.984;5.650;2023-02-20T12:22:36;12.30;99.90
44823;DHT22;51097;51.984;5.650;2023-02-20T12:33:10;12.50;99.90
44823;DHT22;51097;51.984;5.650;2023-02-20T12:36:05;12.50;99.90
44823;DHT22;51097;51.984;5.650;2023-02-20T12:38:48;12.60;99.90
44823;DHT22;51097;51.984;5.650;2023-02-20T12:44:09;12.60;99.90
44823;DHT22;51097;51.984;5.650;2023-02-20T12:47:01;12.60;99.90
44823;DHT22;51097;51.984;5.650;2023-02-20T12:49:37;12.60;99.90
44823;DHT22;51097;51.984;5.650;2023-02-20T12:55:17;12.70;99.90
44823;DHT22;51097;51.984;5.650;2023-02-20T13:03:19;12.80;99.90
44823;DHT22;51097;51.984;5.650;2023-02-20T13:05:49;12.70;99.90
44823;DHT22;51097;51.984;5.650;2023-02-20T13:08:51;12.60;99.90
44823;DHT22;51097;51.984;5.650;2023-02-20T13:11:14;12.60;99.90
44823;DHT22;51097;51.984;5.650;2023-02-20T13:16:34;12.50;99.90
44823;DHT22;51097;51.984;5.650;2023-02-20T13:19:21;12.50;99.90
44823;DHT22;51097;51.984;5.650;2023-02-20T13:21:48;12.40;99.90
44823;DHT22;51097;51.984;5.650;2023-02-20T13:26:50;12.50;99.90
44823;DHT22;51097;51.984;5.650;2023-02-20T13:29:19;12.60;99.90
44823;DHT22;51097;51.984;5.650;2023-02-20T13:31:50;12.50;99.90
44823;DHT22;51097;51.984;5.650;2023-02-20T13:36:53;12.40;99.90
44823;DHT22;51097;51.984;5.650;2023-02-20T13:39:25;12.50;99.90
44823;DHT22;51097;51.984;5.650;2023-02-20T13:47:30;12.70;99.90
44823;DHT22;51097;51.984;5.650;2023-02-20T13:52:40;12.60;99.90
44823;DHT22;51097;51.984;5.650;2023-02-20T14:00:18;12.60;99.90
44823;DHT22;51097;51.984;5.650;2023-02-20T14:02:45;12.60;99.90
44823;DHT22;51097;51.984;5.650;2023-02-20T14:05:30;12.70;99.90
44823;DHT22;51097;51.984;5.650;2023-02-20T14:07:56;12.60;99.90
44823;DHT22;51097;51.984;5.650;2023-02-20T14:12:57;12.80;99.90
44823;DHT22;51097;51.984;5.650;2023-02-20T14:15:23;12.80;99.90
44823;DHT22;51097;51.984;5.650;2023-02-20T14:17:51;12.90;99.90
44823;DHT22;51097;51.984;5.650;2023-02-20T14:20:34;13.00;99.90
44823;DHT22;51097;51.984;5.650;2023-02-20T14:23:26;12.90;99.90
44823;DHT22;51097;51.984;5.650;2023-02-20T14:25:57;12.80;99.90
44823;DHT22;51097;51.984;5.650;2023-02-20T14:28:23;12.80;99.90
44823;DHT22;51097;51.984;5.650;2023-02-20T14:33:54;12.60;99.90
44823;DHT22;51097;51.984;5.650;2023-02-20T14:42:15;12.70;99.90
44823;DHT22;51097;51.984;5.650;2023-02-20T14:44:47;12.70;99.90
44823;DHT22;51097;51.984;5.650;2023-02-20T14:47:15;12.70;99.90
44823;DHT22;51097;51.984;5.650;2023-02-20T14:49:42;12.70;99.90
44823;DHT22;51097;51.984;5.650;2023-02-20T14:54:34;12.80;99.90
44823;DHT22;51097;51.984;5.650;2023-02-20T14:57:00;12.80;99.90
44823;DHT22;51097;51.984;5.650;2023-02-20T14:59:36;12.70;99.90
44823;DHT22;51097;51.984;5.650;2023-02-20T15:02:25;12.60;99.90
44823;DHT22;51097;51.984;5.650;2023-02-20T15:04:53;12.60;99.90
44823;DHT22;51097;51.984;5.650;2023-02-20T15:07:24;12.60;99.90
44823;DHT22;51097;51.984;5.650;2023-02-20T15:09:55;12.60;99.90
44823;DHT22;51097;51.984;5.650;2023-02-20T15:12:36;12.70;99.90
44823;DHT22;51097;51.984;5.650;2023-02-20T15:15:08;12.60;99.90
44823;DHT22;51097;51.984;5.650;2023-02-20T15:17:39;12.60;99.90
44823;DHT22;51097;51.984;5.650;2023-02-20T15:20:29;12.70;99.90
44823;DHT22;51097;51.984;5.650;2023-02-20T15:25:40;12.80;99.90
44823;DHT22;51097;51.984;5.650;2023-02-20T15:30:59;12.80;99.90
44823;DHT22;51097;51.984;5.650;2023-02-20T15:33:26;12.90;99.90
44823;DHT22;51097;51.984;5.650;2023-02-20T15:35:51;12.90;99.90
44823;DHT22;51097;51.984;5.650;2023-02-20T15:38:17;12.90;99.90
44823;DHT22;51097;51.984;5.650;2023-02-20T15:40:43;13.00;99.90
44823;DHT22;51097;51.984;5.650;2023-02-20T15:43:12;12.90;99.90
44823;DHT22;51097;51.984;5.650;2023-02-20T15:45:38;12.80;99.90
44823;DHT22;51097;51.984;5.650;2023-02-20T15:48:05;12.80;99.90
44823;DHT22;51097;51.984;5.650;2023-02-20T15:50:32;12.80;99.90
44823;DHT22;51097;51.984;5.650;2023-02-20T15:53:08;12.80;99.90
44823;DHT22;51097;51.984;5.650;2023-02-20T15:55:38;12.70;99.90
44823;DHT22;51097;51.984;5.650;2023-02-20T15:58:28;12.70;99.90
44823;DHT22;51097;51.984;5.650;2023-02-20T16:00:54;12.60;99.90
44823;DHT22;51097;51.984;5.650;2023-02-20T16:03:24;12.60;99.90
44823;DHT22;51097;51.984;5.650;2023-02-20T16:05:50;12.60;99.90
44823;DHT22;51097;51.984;5.650;2023-02-20T16:08:16;12.60;99.90
44823;DHT22;51097;51.984;5.650;2023-02-20T16:10:41;12.60;99.90
44823;DHT22;51097;51.984;5.650;2023-02-20T16:13:27;12.60;99.90
44823;DHT22;51097;51.984;5.650;2023-02-20T16:15:53;12.50;99.90
44823;DHT22;51097;51.984;5.650;2023-02-20T16:18:19;12.50;99.90
44823;DHT22;51097;51.984;5.650;2023-02-20T16:20:45;12.50;99.90
44823;DHT22;51097;51.984;5.650;2023-02-20T16:23:10;12.40;99.90
44823;DHT22;51097;51.984;5.650;2023-02-20T16:25:36;12.40;99.90
44823;DHT22;51097;51.984;5.650;2023-02-20T16:28:02;12.60;99.90
44823;DHT22;51097;51.984;5.650;2023-02-20T16:30:37;12.50;99.90
44823;DHT22;51097;51.984;5.650;2023-02-20T16:33:18;12.60;99.90
44823;DHT22;51097;51.984;5.650;2023-02-20T16:35:46;12.50;99.90
44823;DHT22;51097;51.984;5.650;2023-02-20T16:38:12;12.50;99.90
44823;DHT22;51097;51.984;5.650;2023-02-20T16:40:38;12.40;99.90
44823;DHT22;51097;51.984;5.650;2023-02-20T16:43:04;12.30;99.90
44823;DHT22;51097;51.984;5.650;2023-02-20T16:45:31;12.20;99.90
44823;DHT22;51097;51.984;5.650;2023-02-20T16:47:57;12.20;99.90
44823;DHT22;51097;51.984;5.650;2023-02-20T16:50:25;12.30;99.90
44823;DHT22;51097;51.984;5.650;2023-02-20T16:52:56;12.20;99.90
44823;DHT22;51097;51.984;5.650;2023-02-20T16:55:37;12.10;99.90
44823;DHT22;51097;51.984;5.650;2023-02-20T16:58:03;12.20;99.90
44823;DHT22;51097;51.984;5.650;2023-02-20T17:00:34;12.20;99.90
44823;DHT22;51097;51.984;5.650;2023-02-20T17:03:00;12.30;99.90
44823;DHT22;51097;51.984;5.650;2023-02-20T17:05:29;12.20;99.90
44823;DHT22;51097;51.984;5.650;2023-02-20T17:07:55;12.20;99.90
44823;DHT22;51097;51.984;5.650;2023-02-20T17:10:22;12.10;99.90
44823;DHT22;51097;51.984;5.650;2023-02-20T17:12:48;12.10;99.90
44823;DHT22;51097;51.984;5.650;2023-02-20T17:15:15;12.20;99.90
44823;DHT22;51097;51.984;5.650;2023-02-20T17:17:42;12.20;99.90
44823;DHT22;51097;51.984;5.650;2023-02-20T17:20:14;12.20;99.90
44823;DHT22;51097;51.984;5.650;2023-02-20T17:22:40;12.10;99.90
44823;DHT22;51097;51.984;5.650;2023-02-20T17:25:08;12.20;99.90
44823;DHT22;51097;51.984;5.650;2023-02-20T17:27:34;12.30;99.90
44823;DHT22;51097;51.984;5.650;2023-02-20T17:30:01;12.30;99.90
44823;DHT22;51097;51.984;5.650;2023-02-20T17:32:27;12.30;99.90
44823;DHT22;51097;51.984;5.650;2023-02-20T17:34:52;12.20;99.90
44823;DHT22;51097;51.984;5.650;2023-02-20T17:37:19;12.10;99.90
44823;DHT22;51097;51.984;5.650;2023-02-20T17:39:45;12.10;99.90
44823;DHT22;51097;51.984;5.650;2023-02-20T17:42:12;12.20;99.90
44823;DHT22;51097;51.984;5.650;2023-02-20T17:44:37;12.10;99.90
44823;DHT22;51097;51.984;5.650;2023-02-20T17:47:04;12.10;99.90
44823;DHT22;51097;51.984;5.650;2023-02-20T17:49:33;12.10;99.90
44823;DHT22;51097;51.984;5.650;2023-02-20T17:51:59;12.20;99.90
44823;DHT22;51097;51.984;5.650;2023-02-20T17:54:29;12.20;99.90
44823;DHT22;51097;51.984;5.650;2023-02-20T17:56:56;12.10;99.90
44823;DHT22;51097;51.984;5.650;2023-02-20T17:59:22;12.20;99.90
44823;DHT22;51097;51.984;5.650;2023-02-20T18:01:48;12.30;99.90
44823;DHT22;51097;51.984;5.650;2023-02-20T18:04:13;12.30;99.90